Time;durP1;ratioP1;P1;durP2;ratioP2;P2;SDS_P1;SDS_P2;PMS_P1;PMS_P2;Temp;Humidity;BMP_temperature;BMP_pressure;BME280_temperature;BME280_humidity;BME280_pressure;Samples;Min_cycle;Max_cycle;Signal;HPM_P1;HPM_P2
2023/09/08 00:00:50;;;;;;;6.20;5.20;;;18.40;99.90;;;;;;5033232;28;20513;-71
2023/09/08 00:03:15;;;;;;;7.90;6.83;;;18.40;99.90;;;;;;5033323;28;20195;-71
2023/09/08 00:05:41;;;;;;;6.40;5.53;;;18.50;99.90;;;;;;5044279;28;20183;-70
2023/09/08 00:08:07;;;;;;;5.23;4.73;;;18.50;99.90;;;;;;5039478;28;20225;-71
2023/09/08 00:10:32;;;;;;;6.93;5.20;;;18.60;99.90;;;;;;5040534;28;20809;-71
2023/09/08 00:12:58;;;;;;;5.07;4.57;;;18.60;99.90;;;;;;5033361;28;20206;-71
2023/09/08 00:15:23;;;;;;;8.20;6.00;;;18.60;99.90;;;;;;5033514;28;20544;-70
2023/09/08 00:17:49;;;;;;;5.97;5.40;;;18.50;99.90;;;;;;5033370;28;20172;-71
2023/09/08 00:20:15;;;;;;;6.43;5.43;;;18.50;99.90;;;;;;5033504;28;20802;-71
2023/09/08 00:22:40;;;;;;;8.40;5.47;;;18.50;99.90;;;;;;5032953;28;20561;-71
2023/09/08 00:25:06;;;;;;;7.50;5.53;;;18.50;99.90;;;;;;5033466;28;20172;-71
2023/09/08 00:27:32;;;;;;;6.97;5.97;;;18.40;99.90;;;;;;5033576;28;20175;-71
2023/09/08 00:29:58;;;;;;;6.40;5.40;;;18.50;99.90;;;;;;5033495;28;20407;-71
2023/09/08 00:32:23;;;;;;;8.60;5.90;;;18.50;99.90;;;;;;5033050;28;20167;-71
2023/09/08 00:34:49;;;;;;;7.83;5.20;;;18.50;99.90;;;;;;5033252;28;20433;-71
2023/09/08 00:37:15;;;;;;;11.10;6.87;;;18.40;99.90;;;;;;5032106;28;20172;-71
2023/09/08 00:39:40;;;;;;;7.97;6.03;;;18.30;99.90;;;;;;5033200;28;20164;-72
2023/09/08 00:42:06;;;;;;;7.40;6.00;;;18.30;99.90;;;;;;5033115;28;20634;-71
2023/09/08 00:44:32;;;;;;;8.17;6.23;;;18.30;99.90;;;;;;5033009;28;20211;-72
2023/09/08 00:46:58;;;;;;;6.37;5.73;;;18.30;99.90;;;;;;5037018;28;20898;-71
2023/09/08 00:49:24;;;;;;;6.33;4.93;;;18.20;99.90;;;;;;5039549;28;20217;-72
2023/09/08 00:51:50;;;;;;;6.90;5.83;;;18.30;99.90;;;;;;5034878;28;20171;-72
2023/09/08 00:54:16;;;;;;;12.43;6.10;;;18.30;99.90;;;;;;5037417;28;20461;-72
2023/09/08 00:56:42;;;;;;;6.20;5.60;;;18.30;99.90;;;;;;5023665;28;20458;-71
2023/09/08 00:59:07;;;;;;;9.17;5.97;;;18.20;99.90;;;;;;5032774;28;20202;-71
2023/09/08 01:01:34;;;;;;;7.60;5.57;;;18.30;99.90;;;;;;5032589;28;20468;-72
2023/09/08 01:04:00;;;;;;;5.90;4.70;;;18.20;99.90;;;;;;5032333;28;20192;-72
2023/09/08 01:06:27;;;;;;;6.27;5.37;;;18.20;99.90;;;;;;5032489;28;20513;-71
2023/09/08 01:08:53;;;;;;;6.87;5.10;;;18.10;99.90;;;;;;5023199;28;20754;-72
2023/09/08 01:11:19;;;;;;;7.50;5.83;;;18.10;99.90;;;;;;5032380;28;20418;-70
2023/09/08 01:13:45;;;;;;;6.57;5.33;;;18.10;99.90;;;;;;5030696;28;20449;-71
2023/09/08 01:16:10;;;;;;;5.93;5.30;;;18.00;99.90;;;;;;5032363;28;20972;-71
2023/09/08 01:18:37;;;;;;;7.13;4.87;;;18.00;99.90;;;;;;5032410;28;20646;-71
2023/09/08 01:21:37;;;;;;;6.90;5.07;;;18.00;99.90;;;;;;5032472;28;20170;-70
2023/09/08 01:24:25;;;;;;;6.90;5.40;;;18.00;99.90;;;;;;5032336;28;20441;-70
2023/09/08 01:26:51;;;;;;;7.90;5.90;;;17.90;99.90;;;;;;5032758;28;20399;-72
2023/09/08 01:29:17;;;;;;;7.80;6.40;;;17.80;99.90;;;;;;5032491;28;20398;-72
2023/09/08 01:31:43;;;;;;;6.20;5.60;;;17.80;99.90;;;;;;5032382;28;20178;-71
2023/09/08 01:34:09;;;;;;;6.63;5.30;;;17.70;99.90;;;;;;5030845;28;20477;-71
2023/09/08 01:36:35;;;;;;;6.07;5.30;;;17.70;99.90;;;;;;5032380;28;20456;-71
2023/09/08 01:39:01;;;;;;;8.60;6.90;;;17.70;99.90;;;;;;5032381;28;20391;-71
2023/09/08 01:41:27;;;;;;;8.87;7.20;;;17.70;99.90;;;;;;5032180;28;20827;-71
2023/09/08 01:43:52;;;;;;;14.37;11.60;;;17.70;99.90;;;;;;5031848;28;20422;-72
2023/09/08 01:46:18;;;;;;;12.97;10.10;;;17.60;99.90;;;;;;5032215;28;20172;-72
2023/09/08 01:48:44;;;;;;;8.50;7.50;;;17.60;99.90;;;;;;5032086;28;20179;-71
2023/09/08 01:51:10;;;;;;;6.50;5.77;;;17.50;99.90;;;;;;5032077;28;20160;-71
2023/09/08 01:53:35;;;;;;;10.00;4.97;;;17.50;99.90;;;;;;5031692;28;20437;-71
2023/09/08 01:56:01;;;;;;;8.03;6.33;;;17.50;99.90;;;;;;5030650;28;20233;-71
2023/09/08 01:58:26;;;;;;;7.97;5.60;;;17.40;99.90;;;;;;5030780;28;20250;-71
2023/09/08 02:00:52;;;;;;;6.90;6.30;;;17.40;99.90;;;;;;5033222;28;20563;-72
2023/09/08 02:03:17;;;;;;;7.13;5.63;;;17.30;99.90;;;;;;5039639;28;20207;-71
2023/09/08 02:05:45;;;;;;;6.67;5.97;;;17.30;99.90;;;;;;5031713;28;20198;-71
2023/09/08 02:08:10;;;;;;;7.83;6.07;;;17.20;99.90;;;;;;5030251;28;20522;-71
2023/09/08 02:10:38;;;;;;;7.50;5.83;;;17.20;99.90;;;;;;5031575;28;20417;-71
2023/09/08 02:13:04;;;;;;;7.73;6.93;;;17.20;99.90;;;;;;5032512;28;20200;-72
2023/09/08 02:15:29;;;;;;;8.40;7.10;;;17.20;99.90;;;;;;5039833;28;20936;-71
2023/09/08 02:17:56;;;;;;;8.77;7.40;;;17.10;99.90;;;;;;5031383;28;20203;-71
2023/09/08 02:20:21;;;;;;;10.17;8.20;;;17.10;99.90;;;;;;5031633;28;20167;-70
2023/09/08 02:22:50;;;;;;;8.37;7.00;;;17.20;99.90;;;;;;5033404;28;20419;-71
2023/09/08 02:25:15;;;;;;;12.00;7.70;;;17.20;99.90;;;;;;5037149;28;20171;-72
2023/09/08 02:27:41;;;;;;;9.10;7.50;;;17.20;99.90;;;;;;5031642;28;21090;-71
2023/09/08 02:30:07;;;;;;;12.10;8.27;;;17.20;99.90;;;;;;5031652;28;20178;-71
2023/09/08 02:32:32;;;;;;;16.00;12.93;;;17.20;99.90;;;;;;5031365;28;20646;-72
2023/09/08 02:34:58;;;;;;;11.00;8.63;;;17.10;99.90;;;;;;5031615;28;20443;-71
2023/09/08 02:37:23;;;;;;;9.47;8.00;;;17.10;99.90;;;;;;5031666;28;20246;-71
2023/09/08 02:39:49;;;;;;;10.50;8.07;;;17.10;99.90;;;;;;5031739;28;20199;-71
2023/09/08 02:42:14;;;;;;;7.93;7.10;;;17.10;99.90;;;;;;5031453;28;20171;-72
2023/09/08 02:44:40;;;;;;;7.33;6.60;;;17.10;99.90;;;;;;5031309;28;20263;-71
2023/09/08 02:47:06;;;;;;;12.50;6.50;;;17.10;99.90;;;;;;5031570;28;20209;-71
2023/09/08 02:49:32;;;;;;;8.77;7.87;;;17.10;99.90;;;;;;5030931;28;20206;-71
2023/09/08 02:51:57;;;;;;;8.00;7.20;;;17.10;99.90;;;;;;5023228;28;20457;-72
2023/09/08 02:54:23;;;;;;;7.30;6.00;;;17.00;99.90;;;;;;5030895;28;20211;-72
2023/09/08 02:56:48;;;;;;;7.63;6.87;;;17.00;99.90;;;;;;5033374;28;20673;-72
2023/09/08 02:59:14;;;;;;;9.67;8.33;;;17.00;99.90;;;;;;5037237;28;20175;-72
2023/09/08 03:01:40;;;;;;;11.50;7.20;;;17.00;99.90;;;;;;5033727;28;20787;-72
2023/09/08 03:04:05;;;;;;;10.03;7.97;;;17.00;99.90;;;;;;5030923;28;20188;-72
2023/09/08 03:06:31;;;;;;;8.90;6.87;;;17.00;99.90;;;;;;5039075;28;20175;-72
2023/09/08 03:08:58;;;;;;;8.20;6.53;;;17.00;99.90;;;;;;5030132;28;20167;-71
2023/09/08 03:11:24;;;;;;;9.27;8.20;;;17.00;99.90;;;;;;5039394;28;20176;-72
2023/09/08 03:13:49;;;;;;;8.30;7.50;;;17.00;99.90;;;;;;5022472;28;20453;-72
2023/09/08 03:16:15;;;;;;;11.47;7.80;;;17.00;99.90;;;;;;5031315;28;20238;-71
2023/09/08 03:18:41;;;;;;;10.90;8.60;;;16.90;99.90;;;;;;5031348;28;20172;-72
2023/09/08 03:21:10;;;;;;;10.60;7.50;;;16.80;99.90;;;;;;5032859;28;20642;-71
2023/09/08 03:23:40;;;;;;;11.67;8.50;;;16.80;99.90;;;;;;5034113;28;20492;-72
2023/09/08 03:26:06;;;;;;;11.67;7.80;;;16.70;99.90;;;;;;5042802;28;20414;-72
2023/09/08 03:28:32;;;;;;;10.43;7.47;;;16.80;99.90;;;;;;5034439;28;20430;-72
2023/09/08 03:30:58;;;;;;;9.00;8.00;;;16.70;99.90;;;;;;5042646;28;20180;-71
2023/09/08 03:33:23;;;;;;;11.70;8.20;;;16.70;99.90;;;;;;5033998;28;20446;-72
2023/09/08 03:35:49;;;;;;;11.27;8.63;;;16.70;99.90;;;;;;5034413;28;20202;-71
2023/09/08 03:38:14;;;;;;;8.27;7.40;;;16.70;99.90;;;;;;5034418;28;20163;-71
2023/09/08 03:40:40;;;;;;;9.40;7.90;;;16.70;99.90;;;;;;5034477;28;20163;-71
2023/09/08 03:43:06;;;;;;;10.60;8.20;;;16.70;99.90;;;;;;5034079;28;20240;-71
2023/09/08 03:45:31;;;;;;;12.50;8.90;;;16.70;99.90;;;;;;5034327;28;20779;-71
2023/09/08 03:47:57;;;;;;;10.87;8.20;;;16.70;99.90;;;;;;5034311;28;20585;-72
2023/09/08 03:50:22;;;;;;;11.37;8.00;;;16.70;99.90;;;;;;5034246;28;20569;-71
2023/09/08 03:52:48;;;;;;;9.50;8.50;;;16.70;99.90;;;;;;5033875;28;20214;-71
2023/09/08 03:55:13;;;;;;;9.73;8.00;;;16.70;99.90;;;;;;5033865;28;20213;-71
2023/09/08 03:57:39;;;;;;;8.07;7.23;;;16.60;99.90;;;;;;5034006;28;20167;-70
2023/09/08 04:00:06;;;;;;;10.83;7.37;;;16.60;99.90;;;;;;5034062;28;20168;-72
2023/09/08 04:02:32;;;;;;;8.93;7.43;;;16.60;99.90;;;;;;5033766;28;20522;-72
2023/09/08 04:04:58;;;;;;;9.07;8.03;;;16.50;99.90;;;;;;5033973;28;20429;-72
2023/09/08 04:07:24;;;;;;;13.13;8.40;;;16.50;99.90;;;;;;5033920;28;20460;-71
2023/09/08 04:09:49;;;;;;;10.50;8.53;;;16.50;99.90;;;;;;5033829;28;20168;-71
2023/09/08 04:12:15;;;;;;;9.87;8.03;;;16.50;99.90;;;;;;5033808;28;20168;-71
2023/09/08 04:14:41;;;;;;;12.97;8.50;;;16.40;99.90;;;;;;5033498;28;20184;-72
2023/09/08 04:17:06;;;;;;;14.47;8.00;;;16.40;99.90;;;;;;5032344;28;20464;-71
2023/09/08 04:19:32;;;;;;;11.67;8.37;;;16.40;99.90;;;;;;5033662;28;20161;-71
2023/09/08 04:21:57;;;;;;;11.67;8.27;;;16.30;99.90;;;;;;5033590;28;20234;-72
2023/09/08 04:24:23;;;;;;;10.63;7.63;;;16.30;99.90;;;;;;5033265;28;20233;-72
2023/09/08 04:26:48;;;;;;;11.63;9.20;;;16.30;99.90;;;;;;5033736;28;20172;-72
2023/09/08 04:29:14;;;;;;;21.43;9.83;;;16.20;99.90;;;;;;5033531;28;20634;-71
2023/09/08 04:31:39;;;;;;;11.37;9.00;;;16.20;99.90;;;;;;5033318;28;20168;-72
2023/09/08 04:34:05;;;;;;;13.20;9.70;;;16.20;99.90;;;;;;5033131;28;20195;-71
2023/09/08 04:36:30;;;;;;;11.70;10.50;;;16.20;99.90;;;;;;5032013;28;20198;-71
2023/09/08 04:38:56;;;;;;;11.83;9.33;;;16.20;99.90;;;;;;5033301;28;20213;-70
2023/09/08 04:41:22;;;;;;;14.90;10.60;;;16.20;99.90;;;;;;5033178;28;20222;-71
2023/09/08 04:43:47;;;;;;;13.63;11.60;;;16.20;99.90;;;;;;5032996;28;21132;-72
2023/09/08 04:46:13;;;;;;;12.80;10.70;;;16.20;99.90;;;;;;5033250;28;20183;-72
2023/09/08 04:48:38;;;;;;;14.10;11.33;;;16.10;99.90;;;;;;5033142;28;20246;-71
2023/09/08 04:51:04;;;;;;;13.00;11.60;;;16.00;99.90;;;;;;5033122;28;20163;-71
2023/09/08 04:53:29;;;;;;;13.13;11.73;;;15.90;99.90;;;;;;5032659;28;20214;-72
2023/09/08 04:55:55;;;;;;;18.60;13.10;;;15.90;99.90;;;;;;5032879;28;20207;-72
2023/09/08 04:58:20;;;;;;;14.50;12.80;;;15.90;99.90;;;;;;5032967;28;20164;-71
2023/09/08 05:00:46;;;;;;;18.80;13.13;;;15.80;99.90;;;;;;5032886;28;20179;-70
2023/09/08 05:03:11;;;;;;;14.73;11.50;;;15.80;99.90;;;;;;5032559;28;20678;-72
2023/09/08 05:05:38;;;;;;;21.30;13.47;;;15.90;99.90;;;;;;5032674;28;20650;-72
2023/09/08 05:08:04;;;;;;;15.03;13.43;;;15.90;99.90;;;;;;5032727;28;20169;-71
2023/09/08 05:10:29;;;;;;;16.00;13.10;;;15.90;99.90;;;;;;5032741;28;20764;-72
2023/09/08 05:12:55;;;;;;;18.00;11.83;;;15.80;99.90;;;;;;5032318;28;20449;-72
2023/09/08 05:15:21;;;;;;;14.40;10.80;;;15.90;99.90;;;;;;5032615;28;20191;-72
2023/09/08 05:17:47;;;;;;;21.77;11.40;;;15.90;99.90;;;;;;5032579;28;20174;-71
2023/09/08 05:20:12;;;;;;;18.43;13.10;;;15.90;99.90;;;;;;5032629;28;20429;-72
2023/09/08 05:22:38;;;;;;;14.97;11.90;;;15.90;99.90;;;;;;5032187;28;20171;-72
2023/09/08 05:25:04;;;;;;;16.40;11.37;;;15.90;99.90;;;;;;5032511;28;20176;-72
2023/09/08 05:27:31;;;;;;;14.27;11.03;;;15.90;99.90;;;;;;5032563;28;20192;-72
2023/09/08 05:29:56;;;;;;;17.90;11.80;;;15.90;99.90;;;;;;5032399;28;20429;-71
2023/09/08 05:32:22;;;;;;;14.70;10.63;;;15.90;99.90;;;;;;5032095;28;20395;-71
2023/09/08 05:34:47;;;;;;;18.13;10.90;;;16.00;99.90;;;;;;5030940;28;20194;-72
2023/09/08 05:37:13;;;;;;;10.63;9.47;;;16.00;99.90;;;;;;5030898;28;20199;-70
2023/09/08 05:39:38;;;;;;;11.97;9.67;;;16.10;99.90;;;;;;5032222;28;20191;-73
2023/09/08 05:42:04;;;;;;;14.30;10.20;;;16.20;99.90;;;;;;5031711;28;20191;-71
2023/09/08 05:44:29;;;;;;;10.13;8.90;;;16.20;99.90;;;;;;5031960;28;20187;-71
2023/09/08 05:46:55;;;;;;;16.20;9.60;;;16.30;99.90;;;;;;5032127;28;20217;-71
2023/09/08 05:49:20;;;;;;;12.10;10.57;;;16.50;99.90;;;;;;5032164;28;20650;-72
2023/09/08 05:51:46;;;;;;;15.63;9.87;;;16.60;99.90;;;;;;5032017;28;20646;-71
2023/09/08 05:54:11;;;;;;;13.20;9.10;;;16.70;99.90;;;;;;5031255;28;20203;-71
2023/09/08 05:56:38;;;;;;;12.07;9.40;;;16.80;99.90;;;;;;5031886;28;20195;-71
2023/09/08 05:59:04;;;;;;;15.10;10.17;;;16.90;99.90;;;;;;5032026;28;20530;-72
2023/09/08 06:01:30;;;;;;;12.10;9.23;;;17.00;99.90;;;;;;5031330;28;20440;-71
2023/09/08 06:03:56;;;;;;;17.13;10.20;;;17.20;99.90;;;;;;5033083;28;20192;-72
2023/09/08 06:06:22;;;;;;;10.17;7.83;;;17.60;99.90;;;;;;5031728;28;20568;-71
2023/09/08 06:08:47;;;;;;;10.97;8.23;;;18.10;99.90;;;;;;5031650;28;20167;-71
2023/09/08 06:11:13;;;;;;;9.50;8.33;;;18.50;99.90;;;;;;5031902;28;20221;-72
2023/09/08 06:13:39;;;;;;;9.10;7.70;;;19.00;99.90;;;;;;5031392;28;20232;-71
2023/09/08 06:16:04;;;;;;;8.57;7.67;;;19.80;99.90;;;;;;5031592;28;20237;-72
2023/09/08 06:18:39;;;;;;;9.03;5.60;;;20.50;99.90;;;;;;5031569;28;20164;-72
2023/09/08 06:21:08;;;;;;;7.00;6.30;;;21.40;99.90;;;;;;5039390;28;20167;-72
2023/09/08 06:23:34;;;;;;;9.70;6.20;;;22.30;99.90;;;;;;5031189;28;20519;-71
2023/09/08 06:26:00;;;;;;;6.93;6.20;;;22.60;99.90;;;;;;5023669;28;20445;-71
2023/09/08 06:28:27;;;;;;;6.37;5.67;;;23.10;99.90;;;;;;5031516;28;20485;-72
2023/09/08 06:30:53;;;;;;;7.93;5.87;;;23.80;99.90;;;;;;5031799;28;20462;-72
2023/09/08 06:33:18;;;;;;;11.73;6.57;;;25.00;99.90;;;;;;5031172;28;20770;-71
2023/09/08 06:35:45;;;;;;;6.87;6.17;;;25.40;99.90;;;;;;5030546;28;20203;-72
2023/09/08 06:38:11;;;;;;;5.90;5.03;;;25.90;99.90;;;;;;5031330;28;20313;-68
2023/09/08 06:40:36;;;;;;;7.83;5.83;;;26.10;99.90;;;;;;5031397;28;20501;-74
2023/09/08 06:43:02;;;;;;;5.87;5.27;;;25.70;99.90;;;;;;5031218;28;20191;-73
2023/09/08 06:45:27;;;;;;;5.60;5.00;;;25.50;99.90;;;;;;5031841;28;20788;-74
2023/09/08 06:47:54;;;;;;;8.27;6.63;;;25.50;99.90;;;;;;5031634;28;20176;-74
2023/09/08 06:50:21;;;;;;;6.80;5.17;;;25.20;99.90;;;;;;5031674;28;20538;-74
2023/09/08 06:52:47;;;;;;;7.37;5.63;;;25.00;99.90;;;;;;5031077;28;20417;-72
2023/09/08 06:55:16;;;;;;;6.10;5.50;;;24.40;99.90;;;;;;5033937;28;20426;-70
2023/09/08 06:57:42;;;;;;;8.10;5.23;;;24.00;99.90;;;;;;5035279;28;20407;-71
2023/09/08 07:00:08;;;;;;;7.20;6.60;;;23.70;99.90;;;;;;5035143;28;20766;-72
2023/09/08 07:02:33;;;;;;;8.73;6.50;;;23.40;99.90;;;;;;5035055;28;20835;-72
2023/09/08 07:04:59;;;;;;;8.00;6.13;;;23.40;99.90;;;;;;5043050;28;20513;-71
2023/09/08 07:07:25;;;;;;;10.63;5.40;;;23.20;99.90;;;;;;5035011;28;20638;-71
2023/09/08 07:09:50;;;;;;;7.67;6.60;;;23.10;99.90;;;;;;5044163;28;20696;-71
2023/09/08 07:12:16;;;;;;;6.87;5.77;;;22.90;99.90;;;;;;5034618;28;20191;-71
2023/09/08 07:14:41;;;;;;;7.40;5.60;;;23.10;99.90;;;;;;5034478;28;20202;-71
2023/09/08 07:17:07;;;;;;;6.27;5.40;;;24.00;99.90;;;;;;5034639;28;20283;-72
2023/09/08 07:19:32;;;;;;;8.20;5.90;;;25.00;99.90;;;;;;5034870;28;20164;-72
2023/09/08 07:21:58;;;;;;;8.90;7.07;;;25.90;99.90;;;;;;5042794;28;20167;-72
2023/09/08 07:24:24;;;;;;;7.50;6.80;;;26.50;99.90;;;;;;5042639;28;20199;-71
2023/09/08 07:26:50;;;;;;;6.10;5.43;;;27.10;99.90;;;;;;5035675;28;20531;-71
2023/09/08 07:29:16;;;;;;;8.20;6.53;;;27.70;99.90;;;;;;5034525;28;20978;-71
2023/09/08 07:31:41;;;;;;;7.13;6.33;;;28.60;99.90;;;;;;5030078;28;20426;-72
2023/09/08 07:34:07;;;;;;;5.70;4.83;;;29.70;95.10;;;;;;5032869;28;20206;-72
2023/09/08 07:36:33;;;;;;;6.17;5.57;;;29.80;90.20;;;;;;5034454;28;20277;-73
2023/09/08 07:38:59;;;;;;;6.70;6.10;;;29.00;86.30;;;;;;5034426;28;20654;-72
2023/09/08 07:41:24;;;;;;;7.90;6.10;;;28.50;87.60;;;;;;5033190;28;20446;-72
2023/09/08 07:43:50;;;;;;;10.10;6.27;;;28.50;90.10;;;;;;5042089;28;20257;-72
2023/09/08 07:46:16;;;;;;;5.80;5.27;;;28.10;90.00;;;;;;5034075;28;20172;-71
2023/09/08 07:48:41;;;;;;;6.27;5.70;;;28.10;90.70;;;;;;5043733;28;20423;-71
2023/09/08 07:51:07;;;;;;;14.97;5.40;;;28.40;90.30;;;;;;5034052;28;20590;-72
2023/09/08 07:53:32;;;;;;;11.90;5.57;;;28.10;90.00;;;;;;5034014;28;20259;-72
2023/09/08 07:55:58;;;;;;;7.33;5.43;;;27.50;90.20;;;;;;5032782;28;20206;-72
2023/09/08 07:58:24;;;;;;;9.07;5.97;;;26.80;93.60;;;;;;5034163;28;20175;-71
2023/09/08 08:00:49;;;;;;;6.40;5.20;;;26.50;95.50;;;;;;5032897;28;20201;-71
2023/09/08 08:03:15;;;;;;;10.53;6.13;;;26.60;97.40;;;;;;5041293;28;20442;-72
2023/09/08 08:05:40;;;;;;;8.10;5.90;;;26.70;99.20;;;;;;5033699;28;20635;-72
2023/09/08 08:08:07;;;;;;;5.43;4.93;;;27.30;99.90;;;;;;5033679;28;20183;-71
2023/09/08 08:10:33;;;;;;;5.50;4.97;;;28.30;96.60;;;;;;5034038;28;20617;-72
2023/09/08 08:12:58;;;;;;;8.50;5.40;;;29.40;93.30;;;;;;5033362;28;20437;-71
2023/09/08 08:15:38;;;;;;;5.77;5.10;;;29.70;88.30;;;;;;5033789;28;20676;-71
2023/09/08 08:18:07;;;;;;;5.30;4.60;;;29.80;85.80;;;;;;5033824;28;20577;-71
2023/09/08 08:20:36;;;;;;;5.87;5.30;;;30.40;84.90;;;;;;5033739;28;20434;-72
2023/09/08 08:23:02;;;;;;;10.33;6.10;;;30.80;76.40;;;;;;5033298;28;20422;-73
2023/09/08 08:25:28;;;;;;;5.00;4.50;;;30.70;70.00;;;;;;5033591;28;20912;-72
2023/09/08 08:27:54;;;;;;;6.33;5.70;;;31.90;72.40;;;;;;5033556;28;20492;-73
2023/09/08 08:30:20;;;;;;;7.17;5.70;;;33.00;67.30;;;;;;5033545;28;20226;-73
2023/09/08 08:32:45;;;;;;;7.43;6.20;;;33.30;60.70;;;;;;5033244;28;20410;-74
2023/09/08 08:35:11;;;;;;;5.57;5.00;;;33.80;57.50;;;;;;5033306;28;20203;-73
2023/09/08 08:37:40;;;;;;;5.70;4.33;;;34.50;54.80;;;;;;5033516;28;20251;-74
2023/09/08 08:40:06;;;;;;;7.40;5.00;;;35.90;53.20;;;;;;5033307;28;20250;-74
2023/09/08 08:42:33;;;;;;;5.40;4.90;;;37.30;50.00;;;;;;5031737;28;20461;-74
2023/09/08 08:45:00;;;;;;;5.23;4.83;;;39.00;46.10;;;;;;5033261;28;20418;-74
2023/09/08 08:47:28;;;;;;;7.03;6.50;;;40.30;43.10;;;;;;5033283;28;20414;-74
2023/09/08 08:49:56;;;;;;;6.27;5.63;;;40.90;39.70;;;;;;5033088;28;20385;-73
2023/09/08 08:52:22;;;;;;;6.23;5.63;;;41.80;38.70;;;;;;5032925;28;20381;-74
2023/09/08 08:54:47;;;;;;;5.90;5.40;;;42.70;37.50;;;;;;5032872;28;20454;-75
2023/09/08 08:57:14;;;;;;;5.97;5.47;;;43.30;35.90;;;;;;5033051;28;20489;-74
2023/09/08 08:59:41;;;;;;;6.53;6.03;;;43.10;34.80;;;;;;5033329;28;20164;-76
2023/09/08 09:02:08;;;;;;;7.50;4.10;;;44.00;34.30;;;;;;5032888;28;20430;-75
2023/09/08 09:04:37;;;;;;;8.70;5.37;;;44.70;33.80;;;;;;5032633;28;20441;-75
2023/09/08 09:07:03;;;;;;;5.63;5.20;;;46.00;32.80;;;;;;5032842;28;20402;-75
2023/09/08 09:09:29;;;;;;;5.50;5.00;;;47.10;31.70;;;;;;5032809;28;20389;-75
2023/09/08 09:11:55;;;;;;;4.90;4.50;;;47.60;29.60;;;;;;5032667;28;20410;-75
2023/09/08 09:14:21;;;;;;;5.30;4.80;;;48.70;30.60;;;;;;5032398;28;20253;-75
2023/09/08 09:16:47;;;;;;;7.50;5.33;;;50.20;29.50;;;;;;5031863;28;20601;-75
2023/09/08 09:19:31;;;;;;;11.23;5.27;;;50.50;27.90;;;;;;5032606;28;20493;-75
2023/09/08 09:21:57;;;;;;;6.07;5.57;;;50.80;28.10;;;;;;5032983;28;20413;-72
2023/09/08 09:24:40;;;;;;;5.90;5.40;;;51.80;26.80;;;;;;5032336;28;20465;-72
2023/09/08 09:27:07;;;;;;;5.90;5.37;;;51.30;25.60;;;;;;5032604;28;20392;-72
2023/09/08 09:29:34;;;;;;;7.70;5.73;;;51.70;26.10;;;;;;5032466;28;20410;-73
2023/09/08 09:32:07;;;;;;;5.07;4.70;;;52.00;25.60;;;;;;5032424;28;20468;-73
2023/09/08 09:34:34;;;;;;;5.47;4.97;;;52.10;25.50;;;;;;5032598;28;20434;-72
2023/09/08 09:37:00;;;;;;;5.07;4.70;;;52.70;25.40;;;;;;5032278;28;20948;-73
2023/09/08 09:39:26;;;;;;;5.67;5.17;;;52.50;24.50;;;;;;5032356;28;20464;-73
2023/09/08 09:41:56;;;;;;;6.10;5.60;;;52.30;24.30;;;;;;5032225;28;20203;-73
2023/09/08 09:44:23;;;;;;;7.27;5.40;;;52.90;24.50;;;;;;5031942;28;20412;-73
2023/09/08 09:46:51;;;;;;;5.70;5.33;;;53.20;25.00;;;;;;5032246;28;20410;-73
2023/09/08 09:49:19;;;;;;;6.33;5.23;;;54.40;24.90;;;;;;5032071;28;20406;-73
2023/09/08 09:51:47;;;;;;;5.30;4.90;;;55.50;24.90;;;;;;5032093;28;20484;-73
2023/09/08 09:54:13;;;;;;;6.07;5.60;;;56.40;24.00;;;;;;5031715;28;20449;-74
2023/09/08 09:56:40;;;;;;;12.93;6.10;;;56.90;23.40;;;;;;5030756;28;20457;-73
2023/09/08 09:59:10;;;;;;;5.33;5.03;;;56.90;22.20;;;;;;5032049;28;20171;-73
2023/09/08 10:01:37;;;;;;;6.60;5.60;;;57.40;22.00;;;;;;5032006;28;20402;-74
2023/09/08 10:04:04;;;;;;;5.97;5.47;;;57.50;21.60;;;;;;5031638;28;20475;-72
2023/09/08 10:06:32;;;;;;;6.03;5.63;;;57.00;20.80;;;;;;5030627;28;20461;-71
2023/09/08 10:09:01;;;;;;;6.13;5.50;;;57.00;21.50;;;;;;5031931;28;20402;-71
2023/09/08 10:11:29;;;;;;;5.87;5.37;;;58.00;22.50;;;;;;5031919;28;20413;-72
2023/09/08 10:13:58;;;;;;;6.97;6.30;;;58.40;21.30;;;;;;5031778;28;20426;-72
2023/09/08 10:16:30;;;;;;;7.47;6.90;;;58.80;20.60;;;;;;5031900;28;20409;-71
2023/09/08 10:18:59;;;;;;;7.10;6.70;;;59.20;20.30;;;;;;5031645;28;20421;-71
2023/09/08 10:21:26;;;;;;;6.77;6.37;;;59.00;19.80;;;;;;5030687;28;20410;-71
2023/09/08 10:24:22;;;;;;;6.50;6.10;;;59.30;20.40;;;;;;5031425;28;21003;-71
2023/09/08 10:26:56;;;;;;;8.10;6.50;;;58.60;19.40;;;;;;5031780;28;20871;-71
2023/09/08 10:29:23;;;;;;;10.40;6.20;;;57.70;19.10;;;;;;5034909;28;20821;-71
2023/09/08 10:31:49;;;;;;;6.37;5.87;;;57.00;19.50;;;;;;5035764;28;20448;-71
2023/09/08 10:34:15;;;;;;;6.17;5.77;;;57.70;20.50;;;;;;5035300;28;20816;-72
2023/09/08 10:36:41;;;;;;;6.10;5.70;;;58.10;20.30;;;;;;5035714;28;20171;-72
2023/09/08 10:39:32;;;;;;;5.73;5.33;;;58.70;20.50;;;;;;5035609;28;20507;-72
2023/09/08 10:42:16;;;;;;;7.23;6.80;;;59.40;20.00;;;;;;5035674;28;20173;-72
2023/09/08 10:44:47;;;;;;;8.73;6.73;;;59.90;19.60;;;;;;5035287;28;20415;-72
2023/09/08 10:47:13;;;;;;;6.40;6.00;;;60.10;18.90;;;;;;5035374;28;20456;-72
2023/09/08 10:49:40;;;;;;;6.80;6.20;;;59.10;18.00;;;;;;5035481;28;20472;-72
2023/09/08 10:52:08;;;;;;;6.47;6.07;;;59.30;18.70;;;;;;5033096;28;20479;-72
2023/09/08 10:54:50;;;;;;;6.97;6.23;;;59.50;19.00;;;;;;5034838;28;20478;-72
2023/09/08 10:57:17;;;;;;;6.87;6.47;;;59.20;18.60;;;;;;5043307;28;20409;-72
2023/09/08 11:00:04;;;;;;;6.60;6.10;;;59.50;18.70;;;;;;5043455;28;20426;-72
2023/09/08 11:02:43;;;;;;;6.83;6.10;;;58.70;18.10;;;;;;5023189;28;20411;-72
2023/09/08 11:05:11;;;;;;;6.50;6.20;;;58.80;18.30;;;;;;5035541;28;20799;-73
2023/09/08 11:07:37;;;;;;;5.57;5.27;;;58.20;17.80;;;;;;5047524;28;20460;-72
2023/09/08 11:10:04;;;;;;;6.10;5.80;;;58.40;19.20;;;;;;5037000;28;20844;-72
2023/09/08 11:12:31;;;;;;;6.07;5.60;;;58.10;18.40;;;;;;5034588;28;20398;-72
2023/09/08 11:14:57;;;;;;;6.40;6.00;;;58.40;19.40;;;;;;5026454;28;20437;-72
2023/09/08 11:17:26;;;;;;;6.97;6.23;;;59.20;19.30;;;;;;5034563;28;20468;-70
2023/09/08 11:19:52;;;;;;;6.40;6.00;;;59.70;19.00;;;;;;5034818;28;20174;-71
2023/09/08 11:22:18;;;;;;;6.57;6.07;;;59.70;17.90;;;;;;5033238;28;20497;-71
2023/09/08 11:24:44;;;;;;;5.60;5.30;;;58.70;18.20;;;;;;5034454;28;20237;-71
2023/09/08 11:27:11;;;;;;;6.33;5.17;;;58.60;18.50;;;;;;5026204;28;20199;-71
2023/09/08 11:29:37;;;;;;;6.40;5.90;;;58.50;18.20;;;;;;5034549;28;20784;-70
2023/09/08 11:32:05;;;;;;;5.30;5.00;;;58.40;18.90;;;;;;5034455;28;20485;-71
2023/09/08 11:34:31;;;;;;;5.90;5.43;;;59.00;18.90;;;;;;5034297;28;20205;-73
2023/09/08 11:36:57;;;;;;;6.83;6.43;;;60.00;19.50;;;;;;5033263;28;20458;-71
2023/09/08 11:39:25;;;;;;;6.97;6.57;;;60.50;18.30;;;;;;5036704;28;20171;-73
2023/09/08 11:41:52;;;;;;;6.97;6.50;;;60.80;17.60;;;;;;5034123;28;20933;-72
2023/09/08 11:44:18;;;;;;;6.90;6.53;;;61.10;17.70;;;;;;5033801;28;20230;-72
2023/09/08 11:46:45;;;;;;;9.07;8.48;;;61.70;18.50;;;;;;5041772;28;20449;-73
2023/09/08 11:49:11;;;;;;;6.95;6.55;;;61.70;17.40;;;;;;5032769;28;20171;-72
2023/09/08 11:51:37;;;;;;;7.40;6.95;;;61.90;17.90;;;;;;5042335;28;20185;-72
2023/09/08 11:54:03;;;;;;;6.53;5.88;;;61.00;16.50;;;;;;5042527;28;20223;-72
2023/09/08 11:56:29;;;;;;;8.83;5.27;;;60.20;17.00;;;;;;5033581;28;20179;-72
2023/09/08 11:58:56;;;;;;;5.80;5.40;;;59.70;17.50;;;;;;5033987;28;20436;-73
2023/09/08 12:01:22;;;;;;;6.70;6.40;;;60.20;18.20;;;;;;5033793;28;20174;-72
2023/09/08 12:03:54;;;;;;;7.18;6.78;;;60.90;18.30;;;;;;5033637;28;20516;-72
2023/09/08 12:06:23;;;;;;;7.22;6.93;;;61.60;18.40;;;;;;5035089;28;20206;-72
2023/09/08 12:08:49;;;;;;;7.47;7.18;;;62.30;18.00;;;;;;5029230;28;20170;-73
2023/09/08 12:11:14;;;;;;;7.78;7.38;;;63.10;18.10;;;;;;5033973;28;20167;-72
2023/09/08 12:13:40;;;;;;;8.60;8.20;;;63.70;17.70;;;;;;5032965;28;20218;-71
2023/09/08 12:16:24;;;;;;;8.43;8.02;;;64.10;17.10;;;;;;5033364;28;20186;-72
2023/09/08 12:18:50;;;;;;;7.07;6.75;;;64.30;16.80;;;;;;5033644;28;20583;-72
2023/09/08 12:21:16;;;;;;;8.05;7.65;;;64.50;16.80;;;;;;5033507;28;20175;-72
2023/09/08 12:23:50;;;;;;;9.10;8.50;;;64.80;17.50;;;;;;5033186;28;20245;-72
2023/09/08 12:26:16;;;;;;;8.43;7.90;;;64.90;16.70;;;;;;5033320;28;20210;-72
2023/09/08 12:28:42;;;;;;;8.60;8.30;;;64.70;16.80;;;;;;5032239;28;20630;-73
2023/09/08 12:31:12;;;;;;;8.15;7.80;;;64.70;16.80;;;;;;5033406;28;20178;-72
2023/09/08 12:33:38;;;;;;;8.07;7.68;;;64.80;16.70;;;;;;5033177;28;20183;-73
2023/09/08 12:36:23;;;;;;;8.05;7.43;;;64.60;16.30;;;;;;5033548;28;20250;-73
2023/09/08 12:38:51;;;;;;;7.25;6.85;;;64.10;15.80;;;;;;5032644;28;20193;-73
2023/09/08 12:41:17;;;;;;;7.10;6.80;;;64.00;16.50;;;;;;5033185;28;20178;-72